Time;durP1;ratioP1;P1;durP2;ratioP2;P2;SDS_P1;SDS_P2;PMS_P1;PMS_P2;Temp;Humidity;BMP_temperature;BMP_pressure;BME280_temperature;BME280_humidity;BME280_pressure;Samples;Min_cycle;Max_cycle;Signal;HPM_P1;HPM_P2
2023/01/07 00:00:29;;;;;;;;;;;;;;;8.58;100.00;101349.28;5086378;28;19931;-78
2023/01/07 00:02:54;;;;;;;;;;;;;;;8.58;100.00;101347.53;5086611;28;20458;-77
2023/01/07 00:05:20;;;;;;;;;;;;;;;8.61;100.00;101347.44;5086836;28;19928;-78
2023/01/07 00:07:45;;;;;;;;;;;;;;;8.64;100.00;101351.75;5086847;28;20329;-77
2023/01/07 00:10:11;;;;;;;;;;;;;;;8.65;100.00;101350.84;5085553;28;20473;-77
2023/01/07 00:12:36;;;;;;;;;;;;;;;8.66;100.00;101344.69;5085359;28;19936;-77
2023/01/07 00:15:01;;;;;;;;;;;;;;;8.67;100.00;101347.25;5085750;28;19924;-77
2023/01/07 00:17:27;;;;;;;;;;;;;;;8.71;100.00;101336.63;5068263;28;19924;-78
2023/01/07 00:19:52;;;;;;;;;;;;;;;8.72;100.00;101339.19;5085990;28;20127;-77
2023/01/07 00:22:17;;;;;;;;;;;;;;;8.74;100.00;101334.75;5068082;28;20287;-78
2023/01/07 00:24:43;;;;;;;;;;;;;;;8.75;100.00;101340.88;5085493;28;20595;-78
2023/01/07 00:27:08;;;;;;;;;;;;;;;8.76;100.00;101343.50;5085798;28;20185;-77
2023/01/07 00:29:34;;;;;;;;;;;;;;;8.78;100.00;101343.44;5066873;28;19923;-78
2023/01/07 00:31:59;;;;;;;;;;;;;;;8.79;100.00;101338.13;5066521;28;20540;-78
2023/01/07 00:34:25;;;;;;;;;;;;;;;8.79;100.00;101332.84;5066802;28;19970;-78
2023/01/07 00:36:50;;;;;;;;;;;;;;;8.80;100.00;101331.94;5086035;28;19935;-77
2023/01/07 00:39:19;;;;;;;;;;;;;;;8.81;100.00;101340.69;5084675;28;19927;-78
2023/01/07 00:44:29;;;;;;;;;;;;;;;8.80;100.00;101329.28;5056298;28;20391;-78
2023/01/07 00:46:54;;;;;;;;;;;;;;;8.80;100.00;101334.56;5084788;28;19928;-77
2023/01/07 00:49:20;;;;;;;;;;;;;;;8.81;100.00;101330.13;5067932;28;19990;-78
2023/01/07 00:51:48;;;;;;;;;;;;;;;8.80;100.00;101329.28;5085991;28;19973;-78
2023/01/07 00:54:13;;;;;;;;;;;;;;;8.80;100.00;101334.56;5066153;28;19931;-78
2023/01/07 00:56:38;;;;;;;;;;;;;;;8.81;100.00;101336.31;5085153;28;20402;-78
2023/01/07 00:59:04;;;;;;;;;;;;;;;8.82;100.00;101324.81;5067241;28;19923;-78
2023/01/07 01:01:29;;;;;;;;;;;;;;;8.82;100.00;101324.81;5085617;28;19927;-77
2023/01/07 01:03:55;;;;;;;;;;;;;;;8.82;100.00;101321.31;5066484;28;20393;-77
2023/01/07 01:06:20;;;;;;;;;;;;;;;8.81;100.00;101315.19;5085414;28;19935;-78
2023/01/07 01:08:46;;;;;;;;;;;;;;;8.81;100.00;101309.91;5049651;28;20475;-78
2023/01/07 01:11:12;;;;;;;;;;;;;;;8.82;100.00;101316.03;5053102;28;19927;-78
2023/01/07 01:13:38;;;;;;;;;;;;;;;8.81;100.00;101309.03;5084771;28;19927;-77
2023/01/07 01:16:07;;;;;;;;;;;;;;;8.82;100.00;101310.75;5066756;28;19935;-78
2023/01/07 01:18:32;;;;;;;;;;;;;;;8.82;100.00;101313.38;5084408;28;19939;-77
2023/01/07 01:21:01;;;;;;;;;;;;;;;8.82;100.00;101310.75;5074915;28;19928;-78
2023/01/07 01:23:27;;;;;;;;;;;;;;;8.81;100.00;101309.91;5085550;28;20401;-78
2023/01/07 01:25:52;;;;;;;;;;;;;;;8.80;100.00;101299.38;5071947;28;20022;-77
2023/01/07 01:28:17;;;;;;;;;;;;;;;8.80;100.00;101310.81;5066743;28;19930;-77
2023/01/07 01:30:43;;;;;;;;;;;;;;;8.80;100.00;101312.56;5085465;28;19935;-78
2023/01/07 01:33:08;;;;;;;;;;;;;;;8.79;100.00;101300.28;5089732;28;19928;-78
2023/01/07 01:35:40;;;;;;;;;;;;;;;8.80;100.00;101296.72;5071318;28;19934;-77
2023/01/07 01:38:06;;;;;;;;;;;;;;;8.78;100.00;101304.69;5088454;28;20129;-78
2023/01/07 01:40:31;;;;;;;;;;;;;;;8.79;100.00;101302.94;5074598;28;19928;-77
2023/01/07 01:42:57;;;;;;;;;;;;;;;8.78;100.00;101299.41;5089386;28;20211;-78
2023/01/07 01:45:22;;;;;;;;;;;;;;;8.78;100.00;101302.06;5088079;28;19971;-77
2023/01/07 01:47:52;;;;;;;;;;;;;;;8.79;100.00;101301.16;5070710;28;20010;-78
2023/01/07 01:50:19;;;;;;;;;;;;;;;8.79;100.00;101306.44;5088425;28;20439;-77
2023/01/07 01:53:01;;;;;;;;;;;;;;;8.79;100.00;101311.72;5071010;28;19963;-78
2023/01/07 01:55:31;;;;;;;;;;;;;;;8.80;100.00;101302.91;5069714;28;20342;-78
2023/01/07 01:57:58;;;;;;;;;;;;;;;8.80;100.00;101302.00;5071187;28;19927;-78
2023/01/07 02:00:24;;;;;;;;;;;;;;;8.82;100.00;101313.38;5088459;28;20054;-78
2023/01/07 02:02:50;;;;;;;;;;;;;;;8.81;100.00;101295.81;5070781;28;19931;-78
2023/01/07 02:05:16;;;;;;;;;;;;;;;8.82;100.00;101297.53;5070671;28;19924;-77
2023/01/07 02:07:41;;;;;;;;;;;;;;;8.82;100.00;101289.63;5071285;28;19971;-78
2023/01/07 02:10:14;;;;;;;;;;;;;;;8.83;100.00;101291.38;5070492;28;19989;-78
2023/01/07 02:12:46;;;;;;;;;;;;;;;8.83;100.00;101297.50;5088387;28;19978;-78
2023/01/07 02:15:12;;;;;;;;;;;;;;;8.81;100.00;101294.06;5087647;28;19937;-78
2023/01/07 02:17:37;;;;;;;;;;;;;;;8.80;100.00;101286.16;5070358;28;19927;-78
2023/01/07 02:20:09;;;;;;;;;;;;;;;8.79;100.00;101282.69;5089046;28;19931;-78
2023/01/07 02:22:44;;;;;;;;;;;;;;;8.79;100.00;101284.44;5070632;28;20405;-77
2023/01/07 02:25:28;;;;;;;;;;;;;;;8.79;100.00;101279.16;5089365;28;20389;-78
2023/01/07 02:28:12;;;;;;;;;;;;;;;8.78;100.00;101278.28;5074766;28;19988;-77
2023/01/07 02:30:46;;;;;;;;;;;;;;;8.76;100.00;101280.13;5087500;28;19966;-78
2023/01/07 02:33:15;;;;;;;;;;;;;;;8.76;100.00;101277.47;5069704;28;20231;-78
2023/01/07 02:35:50;;;;;;;;;;;;;;;8.78;100.00;101290.66;5088533;28;20259;-78
2023/01/07 02:38:35;;;;;;;;;;;;;;;8.78;100.00;101290.66;5087965;28;20274;-78
2023/01/07 02:41:09;;;;;;;;;;;;;;;8.78;100.00;101288.84;5087233;28;19935;-78
2023/01/07 02:43:47;;;;;;;;;;;;;;;8.78;100.00;101288.84;5087619;28;19986;-77
2023/01/07 02:46:12;;;;;;;;;;;;;;;8.80;100.00;101286.16;5069342;28;19928;-77
2023/01/07 02:48:37;;;;;;;;;;;;;;;8.81;100.00;101280.84;5087057;28;19928;-78
2023/01/07 02:51:03;;;;;;;;;;;;;;;8.82;100.00;101279.94;5069783;28;20010;-77
2023/01/07 02:53:28;;;;;;;;;;;;;;;8.82;100.00;101279.94;5070015;28;20394;-78
2023/01/07 02:55:53;;;;;;;;;;;;;;;8.85;100.00;101281.63;5069954;28;19934;-78
2023/01/07 02:58:31;;;;;;;;;;;;;;;8.85;100.00;101275.47;5088214;28;19928;-77
2023/01/07 03:01:04;;;;;;;;;;;;;;;8.87;100.00;101276.31;5068958;28;19928;-77
2023/01/07 03:03:29;;;;;;;;;;;;;;;8.89;100.00;101274.47;5087431;28;20029;-77
2023/01/07 03:06:13;;;;;;;;;;;;;;;8.89;100.00;101275.31;5086608;28;20105;-78
2023/01/07 03:08:45;;;;;;;;;;;;;;;8.90;100.00;101268.25;5088020;28;19924;-77
2023/01/07 03:11:10;;;;;;;;;;;;;;;8.91;100.00;101270.88;5068887;28;19924;-78
2023/01/07 03:13:45;;;;;;;;;;;;;;;8.92;100.00;101258.50;5069505;28;19951;-78
2023/01/07 03:16:32;;;;;;;;;;;;;;;8.93;100.00;101254.97;5075081;28;19928;-78
2023/01/07 03:19:03;;;;;;;;;;;;;;;8.92;100.00;101246.19;5069529;28;19924;-78
2023/01/07 03:21:28;;;;;;;;;;;;;;;8.93;100.00;101244.41;5069360;28;20019;-78
2023/01/07 03:23:54;;;;;;;;;;;;;;;8.93;100.00;101247.91;5086193;28;19924;-78
2023/01/07 03:26:21;;;;;;;;;;;;;;;8.93;100.00;101239.13;5068936;28;20019;-78
2023/01/07 03:28:46;;;;;;;;;;;;;;;8.92;100.00;101240.91;5069369;28;19935;-78
2023/01/07 03:31:12;;;;;;;;;;;;;;;8.90;100.00;101234.81;5085963;28;19928;-76
2023/01/07 03:33:37;;;;;;;;;;;;;;;8.90;100.00;101236.59;5068844;28;19975;-77
2023/01/07 03:36:03;;;;;;;;;;;;;;;8.90;100.00;101231.31;5068991;28;19931;-78
2023/01/07 03:38:28;;;;;;;;;;;;;;;8.89;100.00;101235.69;5085299;28;19963;-77
2023/01/07 03:40:54;;;;;;;;;;;;;;;8.90;100.00;101236.59;5068694;28;19930;-78
2023/01/07 03:43:20;;;;;;;;;;;;;;;8.90;100.00;101223.38;5076136;28;19924;-77
2023/01/07 03:45:45;;;;;;;;;;;;;;;8.89;100.00;101229.56;5054409;28;19928;-77
2023/01/07 03:48:10;;;;;;;;;;;;;;;8.90;100.00;101228.66;5068124;28;19923;-77
2023/01/07 03:50:36;;;;;;;;;;;;;;;8.92;100.00;101225.06;5086570;28;19955;-77
2023/01/07 03:53:01;;;;;;;;;;;;;;;8.91;100.00;101225.97;5067633;28;19932;-77
2023/01/07 03:55:27;;;;;;;;;;;;;;;8.92;100.00;101227.69;5067100;28;19924;-77
2023/01/07 03:57:52;;;;;;;;;;;;;;;8.94;100.00;101219.75;5068936;28;19928;-77
2023/01/07 04:00:18;;;;;;;;;;;;;;;8.93;100.00;101229.41;5068739;28;20019;-78
2023/01/07 04:02:43;;;;;;;;;;;;;;;8.93;100.00;101223.28;5085714;28;19923;-77
2023/01/07 04:05:09;;;;;;;;;;;;;;;8.92;100.00;101221.53;5073104;28;19928;-78
2023/01/07 04:07:34;;;;;;;;;;;;;;;8.91;100.00;101225.09;5049132;28;19948;-78
2023/01/07 04:10:00;;;;;;;;;;;;;;;8.90;100.00;101218.09;5086010;28;19978;-77
2023/01/07 04:12:25;;;;;;;;;;;;;;;8.90;100.00;101221.63;5067537;28;19923;-77
2023/01/07 04:14:51;;;;;;;;;;;;;;;8.89;100.00;101211.09;5086397;28;20110;-77
2023/01/07 04:17:16;;;;;;;;;;;;;;;8.87;100.00;101208.50;5086164;28;20462;-77
2023/01/07 04:19:42;;;;;;;;;;;;;;;8.87;100.00;101202.38;5085686;28;19972;-77
2023/01/07 04:22:11;;;;;;;;;;;;;;;8.86;100.00;101206.78;5085195;28;20314;-78
2023/01/07 04:24:36;;;;;;;;;;;;;;;8.86;100.00;101211.19;5085259;28;20420;-77
2023/01/07 04:27:01;;;;;;;;;;;;;;;8.84;100.00;101208.59;5067730;28;19924;-78
2023/01/07 04:29:27;;;;;;;;;;;;;;;8.83;100.00;101198.97;5068427;28;20386;-77
2023/01/07 04:31:52;;;;;;;;;;;;;;;8.82;100.00;101203.38;5085447;28;19931;-78
2023/01/07 04:34:18;;;;;;;;;;;;;;;8.82;100.00;101208.66;5085590;28;19928;-77
2023/01/07 04:36:43;;;;;;;;;;;;;;;8.80;100.00;101202.56;5085818;28;19927;-78
2023/01/07 04:39:08;;;;;;;;;;;;;;;8.78;100.00;101204.38;5085685;28;19970;-78
2023/01/07 04:41:34;;;;;;;;;;;;;;;8.78;100.00;101198.25;5067715;28;20429;-77
2023/01/07 04:44:00;;;;;;;;;;;;;;;8.76;100.00;101195.66;5067349;28;19935;-77
2023/01/07 04:46:25;;;;;;;;;;;;;;;8.74;100.00;101197.47;5066526;28;20416;-78
2023/01/07 04:48:51;;;;;;;;;;;;;;;8.73;100.00;101201.03;5086241;28;19939;-78
2023/01/07 04:51:16;;;;;;;;;;;;;;;8.73;100.00;101201.03;5085334;28;22176;-78
2023/01/07 04:53:42;;;;;;;;;;;;;;;8.71;100.00;101189.63;5084833;28;20378;-77
2023/01/07 04:56:07;;;;;;;;;;;;;;;8.71;100.00;101192.28;5085497;28;21561;-77
2023/01/07 04:58:32;;;;;;;;;;;;;;;8.68;100.00;101187.97;5085539;28;19934;-77
2023/01/07 05:00:58;;;;;;;;;;;;;;;8.68;100.00;101187.97;5067490;28;19930;-77
2023/01/07 05:03:24;;;;;;;;;;;;;;;8.67;100.00;101188.03;5050605;28;21481;-77
2023/01/07 05:05:50;;;;;;;;;;;;;;;8.68;100.00;101197.66;5085027;28;19928;-77
2023/01/07 05:08:15;;;;;;;;;;;;;;;8.66;100.00;101191.59;5085202;28;19928;-78
2023/01/07 05:10:40;;;;;;;;;;;;;;;8.66;100.00;101186.31;5053826;28;19932;-77
2023/01/07 05:13:06;;;;;;;;;;;;;;;8.65;100.00;101187.19;5084384;28;19936;-77
2023/01/07 05:15:31;;;;;;;;;;;;;;;8.64;100.00;101183.72;5083884;28;19935;-78
2023/01/07 05:17:57;;;;;;;;;;;;;;;8.65;100.00;101168.72;5085768;28;19973;-77
2023/01/07 05:20:22;;;;;;;;;;;;;;;8.64;100.00;101174.91;5085846;28;19955;-77
2023/01/07 05:22:47;;;;;;;;;;;;;;;8.63;100.00;101163.50;5086215;28;19938;-77
2023/01/07 05:25:13;;;;;;;;;;;;;;;8.63;100.00;101170.56;5066187;28;19963;-77
2023/01/07 05:27:38;;;;;;;;;;;;;;;8.60;100.00;101166.22;5085494;28;19967;-77
2023/01/07 05:30:06;;;;;;;;;;;;;;;8.59;100.00;101163.63;5086101;28;19932;-77
2023/01/07 05:32:31;;;;;;;;;;;;;;;8.58;100.00;101167.19;5084054;28;19924;-77
2023/01/07 05:34:57;;;;;;;;;;;;;;;8.55;100.00;101155.81;5084439;28;19931;-77
2023/01/07 05:37:23;;;;;;;;;;;;;;;8.54;100.00;101154.09;5084654;28;19932;-77
2023/01/07 05:39:49;;;;;;;;;;;;;;;8.53;100.00;101154.16;5084461;28;19936;-77
2023/01/07 05:42:14;;;;;;;;;;;;;;;8.52;100.00;101153.31;5084086;28;19932;-77
2023/01/07 05:44:41;;;;;;;;;;;;;;;8.50;100.00;101157.72;5085926;28;19928;-77
2023/01/07 05:47:06;;;;;;;;;;;;;;;8.50;100.00;101159.50;5084790;28;20015;-77
2023/01/07 05:49:32;;;;;;;;;;;;;;;8.48;100.00;101153.38;5065924;28;19932;-78
2023/01/07 05:51:57;;;;;;;;;;;;;;;8.46;100.00;101147.31;5084851;28;20018;-77
2023/01/07 05:54:23;;;;;;;;;;;;;;;8.44;100.00;101144.72;5071426;28;20382;-77
2023/01/07 05:56:48;;;;;;;;;;;;;;;8.42;100.00;101147.41;5065867;28;20272;-77
2023/01/07 05:59:14;;;;;;;;;;;;;;;8.40;100.00;101145.75;5084421;28;20298;-78
2023/01/07 06:01:39;;;;;;;;;;;;;;;8.39;100.00;101144.00;5084341;28;19928;-77
2023/01/07 06:04:05;;;;;;;;;;;;;;;8.36;100.00;101139.69;5084738;28;20172;-78
2023/01/07 06:06:30;;;;;;;;;;;;;;;8.34;100.00;101141.50;5084107;28;20414;-78
2023/01/07 06:08:55;;;;;;;;;;;;;;;8.33;100.00;101134.50;5084650;28;19928;-78
2023/01/07 06:11:23;;;;;;;;;;;;;;;8.33;100.00;101128.38;5085536;28;19932;-78
2023/01/07 06:13:48;;;;;;;;;;;;;;;8.30;100.00;101129.34;5083917;28;20548;-78
2023/01/07 06:16:14;;;;;;;;;;;;;;;8.29;100.00;101133.72;5084833;28;19928;-77
2023/01/07 06:18:39;;;;;;;;;;;;;;;8.27;100.00;101125.00;5070038;28;20027;-78
2023/01/07 06:21:05;;;;;;;;;;;;;;;8.26;100.00;101115.38;5087605;28;19928;-78
2023/01/07 06:23:30;;;;;;;;;;;;;;;8.27;100.00;101119.72;5070836;28;20393;-78
2023/01/07 06:25:56;;;;;;;;;;;;;;;8.25;100.00;101121.56;5069371;28;19928;-78
2023/01/07 06:28:21;;;;;;;;;;;;;;;8.25;100.00;101112.78;5069659;28;19953;-78
2023/01/07 06:30:47;;;;;;;;;;;;;;;8.22;100.00;101116.38;5087305;28;19928;-78
2023/01/07 06:33:12;;;;;;;;;;;;;;;8.21;100.00;101108.50;5087900;28;19928;-78
2023/01/07 06:35:38;;;;;;;;;;;;;;;8.20;100.00;101106.78;5045072;28;19924;-78
2023/01/07 06:38:03;;;;;;;;;;;;;;;8.19;100.00;101100.66;5070456;28;19955;-78
2023/01/07 06:40:29;;;;;;;;;;;;;;;8.18;100.00;101104.22;5070232;28;20406;-77
2023/01/07 06:42:54;;;;;;;;;;;;;;;8.17;100.00;101099.81;5087688;28;19924;-77
2023/01/07 06:45:20;;;;;;;;;;;;;;;8.18;100.00;101098.06;5087767;28;19927;-78
2023/01/07 06:47:47;;;;;;;;;;;;;;;8.17;100.00;101088.41;5087569;28;20328;-77
2023/01/07 06:50:12;;;;;;;;;;;;;;;8.16;100.00;101092.81;5088577;28;20434;-77
2023/01/07 06:52:38;;;;;;;;;;;;;;;8.15;100.00;101094.63;5054146;28;20445;-78
2023/01/07 06:55:03;;;;;;;;;;;;;;;8.16;100.00;101090.19;5088262;28;20586;-78
2023/01/07 06:57:29;;;;;;;;;;;;;;;8.14;100.00;101094.66;5087007;28;20664;-77
2023/01/07 06:59:54;;;;;;;;;;;;;;;8.13;100.00;101079.75;5088004;28;19971;-78
2023/01/07 07:02:20;;;;;;;;;;;;;;;8.13;100.00;101085.03;5069734;28;19958;-78
2023/01/07 07:04:46;;;;;;;;;;;;;;;8.10;100.00;101091.25;5088060;28;19927;-77
2023/01/07 07:07:11;;;;;;;;;;;;;;;8.08;100.00;101077.25;5087234;28;19950;-78
2023/01/07 07:09:37;;;;;;;;;;;;;;;8.07;100.00;101079.94;5087191;28;19928;-78
2023/01/07 07:12:02;;;;;;;;;;;;;;;8.06;100.00;101076.41;5087679;28;20428;-78
2023/01/07 07:14:28;;;;;;;;;;;;;;;8.07;100.00;101079.94;5086556;28;19928;-78
2023/01/07 07:16:53;;;;;;;;;;;;;;;8.06;100.00;101070.31;5087347;28;20391;-78
2023/01/07 07:19:19;;;;;;;;;;;;;;;8.06;100.00;101070.31;5086546;28;20379;-77
2023/01/07 07:21:45;;;;;;;;;;;;;;;8.04;100.00;101069.47;5068152;28;19957;-78
2023/01/07 07:24:11;;;;;;;;;;;;;;;8.03;100.00;101073.91;5069671;28;19924;-77
2023/01/07 07:26:36;;;;;;;;;;;;;;;8.02;100.00;101075.66;5086728;28;19953;-77
2023/01/07 07:29:01;;;;;;;;;;;;;;;8.01;100.00;101070.44;5085413;28;19935;-77
2023/01/07 07:31:27;;;;;;;;;;;;;;;8.01;100.00;101065.19;5086590;28;19927;-77
2023/01/07 07:33:52;;;;;;;;;;;;;;;8.00;100.00;101060.78;5086526;28;20444;-77
2023/01/07 07:36:18;;;;;;;;;;;;;;;7.98;100.00;101045.03;5087593;28;19975;-77
2023/01/07 07:38:43;;;;;;;;;;;;;;;7.98;100.00;101044.16;5086347;28;20582;-77
2023/01/07 07:41:09;;;;;;;;;;;;;;;7.98;100.00;101052.06;5086035;28;19966;-78
2023/01/07 07:43:34;;;;;;;;;;;;;;;7.97;100.00;101047.72;5069121;28;19951;-78
2023/01/07 07:46:00;;;;;;;;;;;;;;;7.97;100.00;101050.34;5067997;28;20015;-78
2023/01/07 07:48:25;;;;;;;;;;;;;;;7.97;100.00;101061.78;5068833;28;19932;-78
2023/01/07 07:50:51;;;;;;;;;;;;;;;7.97;100.00;101053.00;5069090;28;19957;-75
2023/01/07 07:53:17;;;;;;;;;;;;;;;7.96;100.00;101052.13;5068397;28;20015;-76
2023/01/07 07:55:42;;;;;;;;;;;;;;;7.95;100.00;101050.38;5087544;28;20360;-76
2023/01/07 07:58:08;;;;;;;;;;;;;;;7.94;100.00;101047.78;5068417;28;19928;-76
2023/01/07 08:00:33;;;;;;;;;;;;;;;7.92;100.00;101049.63;5068334;28;19928;-76
2023/01/07 08:02:59;;;;;;;;;;;;;;;7.91;100.00;101045.28;5068370;28;20388;-77
2023/01/07 08:05:25;;;;;;;;;;;;;;;7.89;100.00;101045.31;5068263;28;19963;-77
2023/01/07 08:07:50;;;;;;;;;;;;;;;7.87;100.00;101047.13;5085983;28;19936;-76
2023/01/07 08:10:16;;;;;;;;;;;;;;;7.86;100.00;101045.41;5051400;28;20358;-77
2023/01/07 08:12:41;;;;;;;;;;;;;;;7.84;100.00;101042.81;5086570;28;19928;-77
2023/01/07 08:15:07;;;;;;;;;;;;;;;7.82;100.00;101043.78;5086182;28;20467;-76
2023/01/07 08:17:32;;;;;;;;;;;;;;;7.80;100.00;101035.91;5085047;28;20018;-77
2023/01/07 08:19:58;;;;;;;;;;;;;;;7.78;100.00;101034.25;5068538;28;19916;-77
2023/01/07 08:22:23;;;;;;;;;;;;;;;7.77;100.00;101032.50;5086042;28;19923;-77
2023/01/07 08:24:49;;;;;;;;;;;;;;;7.75;100.00;101020.22;5086540;28;19962;-77
2023/01/07 08:27:14;;;;;;;;;;;;;;;7.75;100.00;101028.13;5086221;28;19943;-76
2023/01/07 08:29:39;;;;;;;;;;;;;;;7.77;100.00;101021.94;5086591;28;19959;-77
2023/01/07 08:32:05;;;;;;;;;;;;;;;7.76;100.00;101026.38;5084804;28;20283;-77
2023/01/07 08:34:30;;;;;;;;;;;;;;;7.77;100.00;101019.31;5086171;28;20397;-77
2023/01/07 08:36:56;;;;;;;;;;;;;;;7.77;100.00;101014.03;5085487;28;19932;-77
2023/01/07 08:39:21;;;;;;;;;;;;;;;7.77;100.00;101011.41;5068325;28;19928;-77
2023/01/07 08:41:47;;;;;;;;;;;;;;;7.79;100.00;101012.25;5066507;28;19928;-77
2023/01/07 08:44:12;;;;;;;;;;;;;;;7.79;100.00;101007.81;5085316;28;19938;-76
2023/01/07 08:46:37;;;;;;;;;;;;;;;7.79;100.00;100996.44;5086078;28;20348;-77
2023/01/07 08:49:03;;;;;;;;;;;;;;;7.80;100.00;101004.28;5067849;28;19927;-77
2023/01/07 08:51:28;;;;;;;;;;;;;;;7.81;100.00;101005.16;5084815;28;19932;-77
2023/01/07 08:53:54;;;;;;;;;;;;;;;7.81;100.00;100999.88;5067761;28;20374;-77
2023/01/07 08:56:20;;;;;;;;;;;;;;;7.81;100.00;101002.50;5085736;28;20386;-77
2023/01/07 08:58:46;;;;;;;;;;;;;;;7.81;100.00;100997.25;5084847;28;20413;-76
2023/01/07 09:01:11;;;;;;;;;;;;;;;7.81;100.00;100994.59;5084294;28;20029;-76
2023/01/07 09:03:37;;;;;;;;;;;;;;;7.82;100.00;100998.97;5085616;28;19966;-76
2023/01/07 09:06:02;;;;;;;;;;;;;;;7.83;100.00;100998.03;5085922;28;19961;-76
2023/01/07 09:08:27;;;;;;;;;;;;;;;7.83;100.00;101004.19;5067707;28;19923;-76
2023/01/07 09:10:53;;;;;;;;;;;;;;;7.83;100.00;100995.41;5085447;28;19927;-76
2023/01/07 09:13:18;;;;;;;;;;;;;;;7.82;100.00;100991.94;5071932;28;19919;-76
2023/01/07 09:15:44;;;;;;;;;;;;;;;7.83;100.00;100990.13;5084586;28;20459;-76
2023/01/07 09:18:10;;;;;;;;;;;;;;;7.84;100.00;100994.53;5085427;28;19927;-76
2023/01/07 09:20:35;;;;;;;;;;;;;;;7.83;100.00;100991.00;5066890;28;19924;-76
2023/01/07 09:23:01;;;;;;;;;;;;;;;7.85;100.00;100983.06;5086078;28;19983;-76
2023/01/07 09:25:26;;;;;;;;;;;;;;;7.85;100.00;100980.44;5081476;28;20125;-76
2023/01/07 09:27:52;;;;;;;;;;;;;;;7.85;100.00;100981.28;5083803;28;19939;-77
2023/01/07 09:30:17;;;;;;;;;;;;;;;7.85;100.00;100977.78;5081261;28;21933;-76
2023/01/07 09:32:43;;;;;;;;;;;;;;;7.85;100.00;100981.28;5061388;28;21498;-77
2023/01/07 09:35:09;;;;;;;;;;;;;;;7.87;100.00;100979.47;5048601;28;19927;-77
2023/01/07 09:37:34;;;;;;;;;;;;;;;7.86;100.00;100969.81;5066288;28;19928;-78
2023/01/07 09:40:00;;;;;;;;;;;;;;;7.86;100.00;100976.88;5051186;28;19928;-77
2023/01/07 09:42:30;;;;;;;;;;;;;;;7.87;100.00;100966.28;5066004;28;19935;-76
2023/01/07 09:44:58;;;;;;;;;;;;;;;7.86;100.00;100963.69;5080565;28;20179;-78
2023/01/07 09:47:24;;;;;;;;;;;;;;;7.87;100.00;100968.06;5083054;28;19955;-78
2023/01/07 09:49:51;;;;;;;;;;;;;;;7.87;100.00;100968.06;5064041;28;19973;-77
2023/01/07 09:52:22;;;;;;;;;;;;;;;7.87;100.00;100968.94;5065512;28;19928;-77
2023/01/07 09:54:50;;;;;;;;;;;;;;;7.91;100.00;100969.69;5070070;28;20340;-77
2023/01/07 09:57:15;;;;;;;;;;;;;;;7.95;100.00;100966.03;5085582;28;19926;-77
2023/01/07 09:59:41;;;;;;;;;;;;;;;7.98;100.00;100965.94;5066611;28;19927;-77
2023/01/07 10:02:25;;;;;;;;;;;;;;;8.01;100.00;100952.66;5084422;28;19943;-77
2023/01/07 10:04:54;;;;;;;;;;;;;;;8.02;100.00;100957.00;5087818;28;19935;-76
2023/01/07 10:07:42;;;;;;;;;;;;;;;8.04;100.00;100959.59;5088306;28;19928;-76
2023/01/07 10:10:08;;;;;;;;;;;;;;;8.06;100.00;100949.84;5074600;28;20824;-77
2023/01/07 10:12:36;;;;;;;;;;;;;;;8.08;100.00;100955.06;5082989;28;19974;-77
2023/01/07 10:15:14;;;;;;;;;;;;;;;8.10;100.00;100953.25;5087692;28;19931;-77
2023/01/07 10:17:39;;;;;;;;;;;;;;;8.10;100.00;100946.22;5085214;28;19924;-77
2023/01/07 10:20:16;;;;;;;;;;;;;;;8.12;100.00;100954.06;5069510;28;20371;-77
2023/01/07 10:22:49;;;;;;;;;;;;;;;8.13;100.00;100954.00;5051325;28;19943;-77
2023/01/07 10:25:17;;;;;;;;;;;;;;;8.15;100.00;100946.03;5058965;28;19948;-77
2023/01/07 10:27:45;;;;;;;;;;;;;;;8.16;100.00;100937.22;5070004;28;19920;-77
2023/01/07 10:30:23;;;;;;;;;;;;;;;8.21;100.00;100935.28;5071001;28;19938;-77
2023/01/07 10:32:50;;;;;;;;;;;;;;;8.25;100.00;100934.28;5066028;28;22305;-77
2023/01/07 10:35:19;;;;;;;;;;;;;;;8.29;100.00;100919.22;5063154;28;20124;-77
2023/01/07 10:37:44;;;;;;;;;;;;;;;8.31;100.00;100922.66;5066140;28;19935;-77
2023/01/07 10:40:19;;;;;;;;;;;;;;;8.35;100.00;100918.13;5065586;28;19949;-76
2023/01/07 10:42:57;;;;;;;;;;;;;;;8.36;100.00;100922.47;5085387;28;19924;-77
2023/01/07 10:45:30;;;;;;;;;;;;;;;8.39;100.00;100904.78;5064836;28;20047;-77
2023/01/07 10:48:05;;;;;;;;;;;;;;;8.41;100.00;100899.44;5068070;28;19934;-76
2023/01/07 10:50:34;;;;;;;;;;;;;;;8.41;100.00;100894.16;5087018;28;19932;-77
2023/01/07 10:53:18;;;;;;;;;;;;;;;8.42;100.00;100891.50;5086026;28;19931;-77
2023/01/07 10:56:02;;;;;;;;;;;;;;;8.45;100.00;100879.97;5082994;28;19946;-77
2023/01/07 10:58:33;;;;;;;;;;;;;;;8.47;100.00;100880.75;5052237;28;19928;-77
2023/01/07 11:00:59;;;;;;;;;;;;;;;8.52;100.00;100872.72;5082209;28;19931;-77
2023/01/07 11:03:24;;;;;;;;;;;;;;;8.58;100.00;100863.69;5063786;28;19928;-77
2023/01/07 11:05:54;;;;;;;;;;;;;;;8.62;100.00;100860.03;5066779;28;19934;-81
2023/01/07 11:08:33;;;;;;;;;;;;;;;8.67;100.00;100858.09;5063549;28;19928;-78
2023/01/07 11:10:59;;;;;;;;;;;;;;;8.72;100.00;100842.91;5038645;28;19931;-78
2023/01/07 11:13:25;;;;;;;;;;;;;;;8.77;100.00;100848.06;5076009;28;19932;-79
2023/01/07 11:15:57;;;;;;;;;;;;;;;8.82;100.00;100848.72;5063639;28;21594;-79
2023/01/07 11:18:25;;;;;;;;;;;;;;;8.85;100.00;100839.81;5048955;28;19932;-79
2023/01/07 11:20:57;;;;;;;;;;;;;;;8.87;100.00;100832.72;5063857;28;19936;-80
2023/01/07 11:23:32;;;;;;;;;;;;;;;8.90;100.00;100816.75;5063376;28;19935;-79
2023/01/07 11:26:07;;;;;;;;;;;;;;;8.91;100.00;100808.78;5080063;28;20440;-77
2023/01/07 11:28:32;;;;;;;;;;;;;;;8.93;100.00;100803.44;5080188;28;19924;-77
2023/01/07 11:30:58;;;;;;;;;;;;;;;8.92;100.00;100812.25;5078298;28;19934;-79
2023/01/07 11:33:25;;;;;;;;;;;;;;;8.93;100.00;100814.00;5061856;28;19924;-78
2023/01/07 11:35:51;;;;;;;;;;;;;;;8.91;100.00;100802.63;5064230;28;20022;-79
2023/01/07 11:38:30;;;;;;;;;;;;;;;8.90;100.00;100791.22;5048442;28;19928;-78
2023/01/07 11:40:56;;;;;;;;;;;;;;;8.89;100.00;100784.19;5080729;27;21166;-78
2023/01/07 11:43:22;;;;;;;;;;;;;;;8.89;100.00;100778.06;5080628;28;19975;-78
2023/01/07 11:45:48;;;;;;;;;;;;;;;8.88;100.00;100765.78;5083433;28;20168;-79
2023/01/07 11:48:25;;;;;;;;;;;;;;;8.88;100.00;100765.78;5058965;28;19993;-79
2023/01/07 11:50:53;;;;;;;;;;;;;;;8.85;100.00;100745.66;5063759;28;19928;-77
2023/01/07 11:53:18;;;;;;;;;;;;;;;8.86;100.00;100751.78;5062597;28;20799;-78
2023/01/07 11:55:57;;;;;;;;;;;;;;;8.82;100.00;100746.63;5080328;28;19927;-78
2023/01/07 11:58:23;;;;;;;;;;;;;;;8.81;100.00;100731.72;5078283;28;19932;-77
2023/01/07 12:01:01;;;;;;;;;;;;;;;8.79;100.00;100730.94;5080447;28;19984;-78
2023/01/07 12:03:26;;;;;;;;;;;;;;;8.78;100.00;100718.63;5080818;28;20568;-78
2023/01/07 12:05:54;;;;;;;;;;;;;;;8.79;100.00;100717.72;5078035;28;20021;-77
2023/01/07 12:08:20;;;;;;;;;;;;;;;8.79;100.00;100709.81;5062814;28;20233;-77
2023/01/07 12:10:45;;;;;;;;;;;;;;;8.80;100.00;100705.38;5062925;28;20157;-77
2023/01/07 12:13:22;;;;;;;;;;;;;;;8.81;100.00;100701.81;5049876;28;19971;-79
2023/01/07 12:15:48;;;;;;;;;;;;;;;8.83;100.00;100692.06;5064605;28;19935;-79
2023/01/07 12:18:33;;;;;;;;;;;;;;;8.86;100.00;100677.84;5060362;28;19989;-76
2023/01/07 12:21:04;;;;;;;;;;;;;;;8.91;100.00;100683.81;5082757;28;19931;-77
2023/01/07 12:23:42;;;;;;;;;;;;;;;8.94;100.00;100670.50;5081721;28;19924;-76
2023/01/07 12:26:11;;;;;;;;;;;;;;;8.96;100.00;100663.38;5076975;28;19924;-79
2023/01/07 12:28:48;;;;;;;;;;;;;;;8.96;100.00;100668.66;5078774;28;20290;-78
2023/01/07 12:31:20;;;;;;;;;;;;;;;8.97;100.00;100659.78;5058801;28;19973;-78
2023/01/07 12:34:06;;;;;;;;;;;;;;;8.97;100.00;100654.50;5078898;28;19924;-78
2023/01/07 12:36:34;;;;;;;;;;;;;;;8.99;100.00;100651.81;5060054;28;20466;-78
2023/01/07 12:39:02;;;;;;;;;;;;;;;8.98;100.00;100650.94;5080550;28;20432;-78